Time;durP1;ratioP1;P1;durP2;ratioP2;P2;SDS_P1;SDS_P2;PMS_P1;PMS_P2;Temp;Humidity;BMP_temperature;BMP_pressure;BME280_temperature;BME280_humidity;BME280_pressure;Samples;Min_cycle;Max_cycle;Signal;HPM_P1;HPM_P2
2022/07/05 00:02:20;;;;;;;12.52;7.40;;;;;;;12.11;87.75;102022.31;5113066;28;20027;-49
2022/07/05 00:04:46;;;;;;;18.83;9.02;;;;;;;12.11;87.92;102017.16;5113005;28;20425;-48
2022/07/05 00:07:17;;;;;;;15.35;9.27;;;;;;;12.02;87.50;102019.34;5112102;28;20743;-48
2022/07/05 00:09:44;;;;;;;15.68;8.60;;;;;;;11.93;87.73;102021.47;5112773;28;20077;-49
2022/07/05 00:12:09;;;;;;;16.52;9.52;;;;;;;11.89;88.01;102014.44;5112962;28;20067;-48
2022/07/05 00:14:35;;;;;;;20.55;10.15;;;;;;;11.85;88.69;102013.41;5111847;28;20070;-48
2022/07/05 00:17:02;;;;;;;14.88;9.32;;;;;;;11.83;88.45;102010.75;5112726;28;20031;-48
2022/07/05 00:19:28;;;;;;;17.67;8.75;;;;;;;11.78;88.31;102006.22;5114228;28;20502;-47
2022/07/05 00:21:53;;;;;;;13.55;8.50;;;;;;;11.70;87.94;102003.31;5116001;28;20028;-49
2022/07/05 00:24:18;;;;;;;14.90;9.15;;;;;;;11.60;88.55;102002.00;5116545;28;20051;-45
2022/07/05 00:26:43;;;;;;;14.27;9.82;;;;;;;11.50;88.89;102010.16;5116638;28;20039;-48
2022/07/05 00:29:09;;;;;;;18.40;9.45;;;;;;;11.44;89.04;102005.63;5115737;28;20380;-48
2022/07/05 00:31:34;;;;;;;22.60;11.32;;;;;;;11.34;89.57;102011.19;5116541;28;20072;-47
2022/07/05 00:33:59;;;;;;;15.82;10.27;;;;;;;11.26;89.66;102010.84;5116315;28;20468;-46
2022/07/05 00:36:25;;;;;;;13.85;9.93;;;;;;;11.18;90.02;102010.50;5115486;28;20036;-49
2022/07/05 00:38:50;;;;;;;17.13;10.90;;;;;;;11.12;90.40;102007.63;5116313;28;20035;-49
2022/07/05 00:41:15;;;;;;;16.35;10.68;;;;;;;11.12;91.41;102011.91;5116445;28;20047;-48
2022/07/05 00:43:59;;;;;;;16.00;10.75;;;;;;;11.10;91.24;102008.38;5115572;28;20084;-48
2022/07/05 00:46:25;;;;;;;17.40;11.35;;;;;;;11.06;91.49;102009.91;5116195;28;20027;-44
2022/07/05 00:48:50;;;;;;;22.23;11.57;;;;;;;11.04;92.30;102008.97;5116738;28;20077;-48
2022/07/05 00:51:16;;;;;;;19.02;11.70;;;;;;;11.07;93.45;102005.66;5115075;28;20383;-48
2022/07/05 00:53:45;;;;;;;17.80;11.18;;;;;;;11.07;93.27;102008.25;5116266;28;20179;-48
2022/07/05 00:56:12;;;;;;;17.17;10.15;;;;;;;11.01;92.65;102004.56;5115092;28;20024;-48
2022/07/05 00:58:37;;;;;;;19.13;10.75;;;;;;;10.99;92.47;102000.16;5116110;28;20035;-49
2022/07/05 01:01:05;;;;;;;16.10;11.10;;;;;;;10.96;92.80;102012.88;5115750;28;20410;-46
2022/07/05 01:03:31;;;;;;;15.68;10.30;;;;;;;10.86;92.36;102020.19;5114955;28;20486;-48
2022/07/05 01:05:59;;;;;;;19.52;11.75;;;;;;;10.81;93.14;102011.34;5115777;28;20024;-48
2022/07/05 01:08:25;;;;;;;17.60;11.77;;;;;;;10.75;93.06;102021.38;5115841;28;20019;-48
2022/07/05 01:10:52;;;;;;;19.25;11.95;;;;;;;10.74;92.95;102013.56;5114968;28;20391;-49
2022/07/05 01:13:17;;;;;;;22.35;11.60;;;;;;;10.73;93.08;102017.84;5115700;28;20031;-49
2022/07/05 01:15:43;;;;;;;20.20;13.27;;;;;;;10.68;93.36;102016.75;5115485;28;20099;-48
2022/07/05 01:18:10;;;;;;;22.77;13.07;;;;;;;10.66;94.05;102018.34;5114850;28;20027;-47
2022/07/05 01:20:36;;;;;;;23.27;12.82;;;;;;;10.61;93.80;102006.94;5115499;28;20107;-45
2022/07/05 01:23:04;;;;;;;22.90;13.80;;;;;;;10.61;94.00;102012.09;5115654;28;20116;-48
2022/07/05 01:25:30;;;;;;;21.63;13.27;;;;;;;10.58;94.32;102019.69;5114638;28;20375;-48
2022/07/05 01:27:58;;;;;;;24.13;14.43;;;;;;;10.56;94.82;102014.47;5115343;28;20497;-47
2022/07/05 01:30:23;;;;;;;22.77;13.43;;;;;;;10.57;94.85;102008.47;5114238;28;20463;-48
2022/07/05 01:32:48;;;;;;;21.38;13.07;;;;;;;10.55;95.04;102007.53;5114446;28;20020;-49
2022/07/05 01:35:20;;;;;;;22.67;13.43;;;;;;;10.52;94.88;102013.44;5115029;28;20467;-48
2022/07/05 01:37:46;;;;;;;25.33;13.80;;;;;;;10.53;95.30;102014.31;5115359;28;20103;-48
2022/07/05 01:40:13;;;;;;;22.65;13.88;;;;;;;10.56;96.22;102013.56;5114434;28;20089;-48
2022/07/05 01:42:38;;;;;;;24.45;14.20;;;;;;;10.60;96.12;102020.63;5115285;28;20020;-47
2022/07/05 01:45:04;;;;;;;28.08;17.05;;;;;;;10.73;98.16;102007.53;5115093;28;20031;-47
2022/07/05 01:47:35;;;;;;;31.27;17.30;;;;;;;10.79;98.61;102010.38;5114102;28;20499;-48
2022/07/05 01:50:04;;;;;;;19.65;12.63;;;;;;;10.65;95.56;102011.44;5115140;28;20020;-48
2022/07/05 01:52:31;;;;;;;21.15;11.70;;;;;;;10.64;94.84;102007.97;5113960;28;20463;-48
2022/07/05 01:54:58;;;;;;;19.63;12.68;;;;;;;10.64;95.19;102009.66;5115045;28;20027;-47
2022/07/05 01:57:23;;;;;;;31.15;17.75;;;;;;;10.74;97.65;102014.44;5114593;28;20038;-48
2022/07/05 01:59:49;;;;;;;30.67;17.67;;;;;;;10.80;97.71;102008.72;5113848;28;20024;-48
2022/07/05 02:02:14;;;;;;;23.13;14.00;;;;;;;10.68;95.34;102009.03;5114585;28;20023;-47
2022/07/05 02:04:41;;;;;;;23.85;14.10;;;;;;;10.58;94.58;102006.81;5114794;28;20019;-47
2022/07/05 02:07:07;;;;;;;20.45;12.98;;;;;;;10.45;94.40;102006.19;5113758;28;20471;-48
2022/07/05 02:09:33;;;;;;;23.73;14.10;;;;;;;10.43;95.04;102004.34;5114645;28;20073;-47
2022/07/05 02:11:59;;;;;;;28.33;14.35;;;;;;;10.39;94.80;101995.59;5114664;28;20024;-49
2022/07/05 02:14:25;;;;;;;27.27;15.75;;;;;;;10.36;95.46;102000.59;5113711;28;20096;-47
2022/07/05 02:16:50;;;;;;;23.73;15.55;;;;;;;10.34;95.73;101999.59;5114263;28;20484;-47
2022/07/05 02:19:15;;;;;;;22.77;13.48;;;;;;;10.31;95.42;102000.34;5114511;28;20023;-48
2022/07/05 02:21:41;;;;;;;26.63;15.18;;;;;;;10.29;95.74;102006.22;5113541;28;20475;-49
2022/07/05 02:24:07;;;;;;;25.75;15.10;;;;;;;10.27;96.11;102000.13;5114263;28;20032;-48
2022/07/05 02:26:32;;;;;;;24.23;15.27;;;;;;;10.20;95.99;101994.66;5114231;28;20024;-47
2022/07/05 02:28:59;;;;;;;26.45;15.98;;;;;;;10.18;96.51;102001.41;5113516;28;20019;-48
2022/07/05 02:31:24;;;;;;;30.42;16.27;;;;;;;10.13;96.76;101997.72;5114112;28;20172;-47
2022/07/05 02:33:49;;;;;;;26.75;14.35;;;;;;;10.05;96.13;101999.91;5114352;28;20045;-47
2022/07/05 02:36:15;;;;;;;19.50;12.27;;;;;;;9.93;95.40;102008.72;5113315;28;20366;-46
2022/07/05 02:38:41;;;;;;;21.15;12.75;;;;;;;9.79;94.87;102010.63;5113878;28;20108;-48
2022/07/05 02:41:11;;;;;;;23.38;14.80;;;;;;;9.74;96.57;102012.94;5113987;28;20420;-43
2022/07/05 02:43:38;;;;;;;31.40;17.17;;;;;;;9.79;98.05;102011.47;5112892;28;20035;-48
2022/07/05 02:46:03;;;;;;;32.45;17.33;;;;;;;9.85;98.74;102016.03;5113714;28;20427;-46
2022/07/05 02:48:29;;;;;;;27.00;16.58;;;;;;;9.84;98.74;102019.47;5113932;28;20479;-48
2022/07/05 02:50:55;;;;;;;34.33;20.15;;;;;;;9.86;99.21;102017.81;5113270;28;20030;-48
2022/07/05 02:53:20;;;;;;;38.42;22.45;;;;;;;9.93;99.73;102021.59;5113666;28;20023;-48
2022/07/05 02:55:45;;;;;;;39.17;19.98;;;;;;;9.95;99.66;102027.72;5112860;28;20019;-47
2022/07/05 02:58:11;;;;;;;28.60;17.23;;;;;;;9.85;98.01;102026.34;5113624;28;20020;-47
2022/07/05 03:00:36;;;;;;;27.65;16.92;;;;;;;9.79;97.62;102021.78;5113344;28;20044;-49
2022/07/05 03:03:01;;;;;;;35.45;19.90;;;;;;;9.79;98.60;102026.94;5112619;28;20024;-47
2022/07/05 03:05:27;;;;;;;31.23;18.88;;;;;;;9.76;98.21;102020.72;5113689;28;20028;-48
2022/07/05 03:07:52;;;;;;;29.15;18.05;;;;;;;9.69;97.82;102025.56;5113637;28;20024;-48
2022/07/05 03:10:17;;;;;;;36.92;20.48;;;;;;;9.72;98.71;102024.81;5112608;28;20027;-48
2022/07/05 03:12:43;;;;;;;40.17;22.55;;;;;;;9.82;100.00;102024.50;5113418;28;20387;-48
2022/07/05 03:15:09;;;;;;;36.85;19.42;;;;;;;9.79;98.99;102026.06;5112992;28;20031;-48
2022/07/05 03:17:34;;;;;;;45.63;22.92;;;;;;;9.83;99.61;102038.28;5112672;28;20372;-48
2022/07/05 03:19:59;;;;;;;31.30;18.58;;;;;;;9.70;98.24;102037.63;5113143;28;20031;-44
2022/07/05 03:22:24;;;;;;;32.47;18.33;;;;;;;9.68;97.82;102038.34;5113329;28;20024;-45
2022/07/05 03:24:50;;;;;;;32.35;19.60;;;;;;;9.61;98.27;102041.44;5112555;28;20027;-47
2022/07/05 03:27:15;;;;;;;35.00;18.17;;;;;;;9.62;98.34;102036.34;5112999;28;20080;-48
2022/07/05 03:29:40;;;;;;;30.35;18.52;;;;;;;9.59;97.92;102040.44;5113199;28;20034;-48
2022/07/05 03:32:06;;;;;;;30.25;18.05;;;;;;;9.52;97.63;102052.97;5112456;28;20024;-48
2022/07/05 03:34:31;;;;;;;32.30;18.98;;;;;;;9.50;97.86;102044.31;5113250;28;20027;-48
2022/07/05 03:36:56;;;;;;;36.05;20.25;;;;;;;9.49;98.21;102042.53;5113275;28;20038;-48
2022/07/05 03:39:22;;;;;;;40.30;21.80;;;;;;;9.55;99.61;102040.31;5112319;28;20107;-47
2022/07/05 03:41:47;;;;;;;45.92;22.90;;;;;;;9.62;100.00;102045.75;5113113;28;20387;-48
2022/07/05 03:44:12;;;;;;;47.65;26.23;;;;;;;9.69;100.00;102038.44;5112892;28;20024;-48
2022/07/05 03:46:38;;;;;;;48.65;27.92;;;;;;;9.83;100.00;102049.44;5112358;28;20370;-48
2022/07/05 03:49:03;;;;;;;48.35;26.58;;;;;;;9.87;100.00;102043.66;5113095;28;20031;-49
2022/07/05 03:51:28;;;;;;;55.10;27.45;;;;;;;9.96;100.00;102050.09;5113010;28;20374;-49
2022/07/05 03:53:53;;;;;;;45.03;26.45;;;;;;;10.03;100.00;102057.31;5113129;28;20024;-48
2022/07/05 03:56:22;;;;;;;48.25;25.33;;;;;;;10.12;100.00;102049.19;5117072;28;20027;-49
2022/07/05 03:58:51;;;;;;;55.83;25.77;;;;;;;10.18;100.00;102052.94;5117107;28;20076;-48
2022/07/05 04:01:17;;;;;;;49.63;27.08;;;;;;;10.27;100.00;102049.09;5116062;28;20088;-48
2022/07/05 04:03:42;;;;;;;46.88;25.45;;;;;;;10.36;100.00;102053.00;5117078;28;20027;-48
2022/07/05 04:06:09;;;;;;;62.55;31.52;;;;;;;10.57;100.00;102056.59;5116294;28;20028;-48
2022/07/05 04:08:34;;;;;;;55.67;29.80;;;;;;;10.69;100.00;102057.16;5117044;28;20032;-48
2022/07/05 04:11:00;;;;;;;48.83;28.60;;;;;;;10.83;100.00;102053.59;5116846;28;20030;-46
2022/07/05 04:13:25;;;;;;;54.63;28.75;;;;;;;10.94;100.00;102050.63;5115969;28;20066;-48
2022/07/05 04:15:50;;;;;;;49.83;28.35;;;;;;;11.03;100.00;102059.69;5116970;28;20023;-49
2022/07/05 04:18:15;;;;;;;45.92;26.40;;;;;;;11.15;100.00;102058.50;5116791;28;20156;-47
2022/07/05 04:20:41;;;;;;;53.90;29.13;;;;;;;11.27;100.00;102064.22;5115899;28;20016;-49
2022/07/05 04:23:06;;;;;;;56.15;29.30;;;;;;;11.36;100.00;102059.50;5116589;28;20486;-48
2022/07/05 04:25:31;;;;;;;54.63;28.95;;;;;;;11.49;100.00;102063.50;5116573;28;20027;-46
2022/07/05 04:27:56;;;;;;;53.97;30.38;;;;;;;11.56;100.00;102068.97;5115754;28;20395;-48
2022/07/05 04:30:24;;;;;;;50.83;29.15;;;;;;;11.62;100.00;102071.78;5116281;28;20110;-45
2022/07/05 04:32:50;;;;;;;51.50;29.73;;;;;;;11.73;100.00;102068.00;5116625;28;20023;-48
2022/07/05 04:35:16;;;;;;;59.85;28.83;;;;;;;11.79;100.00;102057.06;5115359;28;20028;-46
2022/07/05 04:37:42;;;;;;;55.67;28.60;;;;;;;11.88;99.25;102056.56;5116318;28;20054;-47
2022/07/05 04:40:10;;;;;;;48.97;27.65;;;;;;;11.94;99.13;102056.84;5116240;28;20055;-49
2022/07/05 04:42:35;;;;;;;48.67;27.45;;;;;;;12.04;99.25;102058.16;5115292;28;20463;-48
2022/07/05 04:45:01;;;;;;;51.08;28.05;;;;;;;12.12;98.52;102060.28;5116030;28;20076;-48
2022/07/05 04:47:26;;;;;;;51.78;28.30;;;;;;;12.20;100.00;102060.59;5116081;28;20066;-48
2022/07/05 04:49:52;;;;;;;58.15;31.38;;;;;;;12.26;100.00;102063.41;5115580;28;20063;-48
2022/07/05 04:52:17;;;;;;;53.22;28.77;;;;;;;12.33;100.00;102061.97;5116008;28;20486;-49
2022/07/05 04:54:43;;;;;;;49.58;30.50;;;;;;;12.41;100.00;102058.03;5115961;28;20058;-48
2022/07/05 04:57:08;;;;;;;50.38;28.42;;;;;;;12.47;99.13;102057.38;5114861;28;20038;-49
2022/07/05 04:59:33;;;;;;;42.35;26.10;;;;;;;12.56;96.99;102056.88;5116246;28;20028;-47
2022/07/05 05:01:59;;;;;;;49.97;26.92;;;;;;;12.70;95.00;102060.91;5115722;28;20035;-45
2022/07/05 05:04:24;;;;;;;49.60;27.65;;;;;;;12.82;93.44;102055.31;5115070;28;20122;-49
2022/07/05 05:06:49;;;;;;;44.63;25.77;;;;;;;12.92;92.06;102056.59;5115927;28;20481;-45
2022/07/05 05:09:15;;;;;;;55.47;28.90;;;;;;;13.04;95.02;102051.91;5115663;28;20024;-47
2022/07/05 05:11:40;;;;;;;45.28;27.50;;;;;;;13.14;94.91;102058.31;5114924;28;20077;-48
2022/07/05 05:14:05;;;;;;;43.95;26.02;;;;;;;13.26;92.45;102073.41;5115843;28;20035;-48
2022/07/05 05:16:31;;;;;;;48.75;24.95;;;;;;;13.35;90.80;102066.03;5114669;28;20035;-48
2022/07/05 05:18:56;;;;;;;40.38;23.67;;;;;;;13.45;90.08;102059.50;5115715;28;20041;-47
2022/07/05 05:21:21;;;;;;;42.67;24.98;;;;;;;13.54;89.49;102070.19;5115573;28;20038;-49
2022/07/05 05:23:47;;;;;;;43.03;23.63;;;;;;;13.63;88.38;102069.66;5114798;28;20019;-48
2022/07/05 05:26:12;;;;;;;41.90;23.08;;;;;;;13.74;88.56;102073.53;5115282;28;20463;-48
2022/07/05 05:28:38;;;;;;;46.13;24.92;;;;;;;13.90;89.77;102080.13;5115254;28;20019;-47
2022/07/05 05:31:04;;;;;;;45.78;26.42;;;;;;;14.03;92.33;102090.94;5114704;28;20019;-45
2022/07/05 05:33:29;;;;;;;45.08;26.33;;;;;;;14.16;92.22;102087.94;5115474;28;20081;-49
2022/07/05 05:35:54;;;;;;;46.33;24.70;;;;;;;14.27;90.96;102088.34;5115307;28;20437;-48
2022/07/05 05:38:20;;;;;;;48.15;26.33;;;;;;;14.39;91.09;102085.25;5114563;28;20034;-48
2022/07/05 05:40:45;;;;;;;41.72;23.95;;;;;;;14.45;88.72;102095.84;5115069;28;20381;-45
2022/07/05 05:43:11;;;;;;;44.78;25.33;;;;;;;14.49;86.63;102096.00;5114878;28;20027;-49
2022/07/05 05:45:37;;;;;;;41.53;24.55;;;;;;;14.59;86.40;102096.28;5114160;28;20028;-48
2022/07/05 05:48:03;;;;;;;40.67;24.80;;;;;;;14.68;85.97;102094.06;5115042;28;20035;-49
2022/07/05 05:50:31;;;;;;;42.47;24.35;;;;;;;14.70;83.73;102097.56;5114955;28;20034;-47
2022/07/05 05:52:58;;;;;;;38.65;24.45;;;;;;;14.76;83.92;102097.78;5114229;28;20099;-49
2022/07/05 05:55:25;;;;;;;40.53;23.25;;;;;;;14.84;83.95;102102.34;5114300;28;20463;-48
2022/07/05 05:57:51;;;;;;;41.50;23.73;;;;;;;14.91;83.81;102106.88;5115100;28;20024;-48
2022/07/05 06:00:17;;;;;;;45.45;24.58;;;;;;;14.98;81.85;102101.06;5113780;28;20040;-47
2022/07/05 06:02:43;;;;;;;42.97;24.95;;;;;;;15.01;81.78;102105.47;5114818;28;20562;-48
2022/07/05 06:05:09;;;;;;;41.15;24.15;;;;;;;15.01;81.09;102102.88;5114698;28;20493;-46
2022/07/05 06:07:47;;;;;;;39.13;23.70;;;;;;;15.03;80.69;102102.09;5113723;28;20023;-49
2022/07/05 06:10:15;;;;;;;;;;;;;;;15.17;81.79;102109.41;5114776;28;20036;-49
2022/07/05 06:12:41;;;;;;;37.50;22.30;;;;;;;15.18;80.68;102113.78;5113831;28;19919;-48
2022/07/05 06:15:07;;;;;;;39.60;22.30;;;;;;;15.27;80.20;102116.66;5114465;28;20024;-48
2022/07/05 06:17:36;;;;;;;42.30;22.42;;;;;;;15.34;80.13;102110.81;5113794;28;20088;-49
2022/07/05 06:20:05;;;;;;;39.28;21.92;;;;;;;15.44;79.61;102115.47;5113421;28;20024;-48
2022/07/05 06:22:31;;;;;;;37.28;23.38;;;;;;;15.52;78.82;102117.38;5114245;28;20031;-48
2022/07/05 06:24:56;;;;;;;37.05;21.95;;;;;;;15.59;79.09;102111.53;5114522;28;20020;-47
2022/07/05 06:27:21;;;;;;;48.22;22.58;;;;;;;15.60;77.67;102115.91;5113426;28;20059;-48
2022/07/05 06:29:46;;;;;;;36.15;21.88;;;;;;;15.54;76.96;102116.59;5114084;28;20039;-44
2022/07/05 06:32:11;;;;;;;36.42;20.63;;;;;;;15.61;77.61;102117.69;5114048;28;20468;-49
2022/07/05 06:34:37;;;;;;;41.00;21.20;;;;;;;15.67;78.29;102117.81;5113199;28;20030;-48
2022/07/05 06:37:02;;;;;;;36.80;20.80;;;;;;;15.86;78.97;102121.00;5113715;28;20027;-49
2022/07/05 06:39:27;;;;;;;37.15;22.17;;;;;;;15.97;77.28;102135.16;5113873;28;20031;-48
2022/07/05 06:41:53;;;;;;;37.05;21.73;;;;;;;16.02;76.55;102130.97;5113394;28;20094;-49
2022/07/05 06:44:19;;;;;;;38.97;22.48;;;;;;;16.22;77.35;102128.06;5113931;28;20574;-48
2022/07/05 06:46:44;;;;;;;41.30;23.38;;;;;;;16.32;76.32;102130.06;5114062;28;20038;-48
2022/07/05 06:49:09;;;;;;;36.47;21.95;;;;;;;16.40;74.78;102123.31;5113029;28;20046;-49
2022/07/05 06:51:35;;;;;;;43.85;22.20;;;;;;;16.45;74.77;102126.94;5113695;28;20025;-49
2022/07/05 06:54:01;;;;;;;36.58;21.23;;;;;;;16.57;74.67;102120.28;5113680;28;20036;-49
2022/07/05 06:56:26;;;;;;;37.63;22.83;;;;;;;16.55;73.74;102122.84;5112967;28;20032;-49
2022/07/05 06:58:52;;;;;;;38.03;21.77;;;;;;;16.54;75.21;102121.09;5113836;28;20047;-48
2022/07/05 07:01:17;;;;;;;37.33;20.23;;;;;;;16.39;74.56;102124.16;5113249;28;20058;-49
2022/07/05 07:03:42;;;;;;;36.42;20.17;;;;;;;16.22;73.74;102117.66;5112739;28;20486;-48
2022/07/05 07:06:07;;;;;;;41.25;20.52;;;;;;;16.25;75.35;102122.94;5113454;28;20026;-48
2022/07/05 07:11:18;;;;;;;34.70;19.60;;;;;;;16.36;73.91;102134.50;5113525;28;20494;-49
2022/07/05 07:13:43;;;;;;;30.65;18.55;;;;;;;16.54;74.11;102134.09;5113485;28;20031;-48
2022/07/05 07:16:08;;;;;;;33.03;19.15;;;;;;;16.72;73.85;102128.47;5112515;28;20039;-48
2022/07/05 07:18:35;;;;;;;35.00;18.20;;;;;;;16.88;73.38;102126.25;5113232;28;20019;-48
2022/07/05 07:21:00;;;;;;;33.97;17.50;;;;;;;17.09;72.77;102132.00;5113159;28;20026;-47
2022/07/05 07:23:26;;;;;;;30.50;16.45;;;;;;;17.26;72.35;102126.28;5112674;28;20106;-47
2022/07/05 07:25:51;;;;;;;28.23;15.90;;;;;;;17.33;72.22;102135.13;5113553;28;20020;-49
2022/07/05 07:28:16;;;;;;;29.17;15.70;;;;;;;17.39;71.75;102133.53;5112525;28;20027;-49
2022/07/05 07:30:42;;;;;;;30.65;15.63;;;;;;;17.58;73.12;102133.91;5112263;28;20421;-47
2022/07/05 07:33:07;;;;;;;28.63;14.93;;;;;;;17.74;72.86;102143.81;5112973;28;20024;-46
2022/07/05 07:35:32;;;;;;;30.42;15.55;;;;;;;17.86;71.44;102142.31;5112944;28;20023;-48
2022/07/05 07:37:58;;;;;;;32.10;15.40;;;;;;;17.97;70.79;102137.34;5112561;28;20058;-49
2022/07/05 07:40:23;;;;;;;25.92;14.82;;;;;;;17.98;70.50;102142.59;5113080;28;20069;-49
2022/07/05 07:42:48;;;;;;;28.95;15.35;;;;;;;17.98;70.89;102153.00;5113293;28;20056;-49
2022/07/05 07:45:14;;;;;;;31.98;14.48;;;;;;;17.93;70.97;102149.44;5112302;28;20050;-49
2022/07/05 07:47:39;;;;;;;29.40;14.80;;;;;;;18.02;71.21;102154.81;5112950;28;20468;-48
2022/07/05 07:50:06;;;;;;;30.13;13.98;;;;;;;18.08;70.79;102149.75;5112781;28;20035;-48
2022/07/05 07:52:33;;;;;;;32.05;14.68;;;;;;;18.22;70.67;102152.63;5112343;28;20076;-49
2022/07/05 07:54:59;;;;;;;26.77;14.27;;;;;;;18.38;70.65;102145.94;5113239;28;20028;-49
2022/07/05 07:57:24;;;;;;;36.75;14.52;;;;;;;18.55;69.24;102146.25;5112976;28;20051;-48
2022/07/05 07:59:50;;;;;;;30.00;12.75;;;;;;;18.68;68.87;102146.44;5112208;28;20536;-48
2022/07/05 08:02:17;;;;;;;29.83;13.23;;;;;;;18.72;68.41;102138.69;5112647;28;20168;-49
2022/07/05 08:04:42;;;;;;;29.88;12.60;;;;;;;18.86;67.83;102151.09;5112725;28;20446;-48
2022/07/05 08:07:08;;;;;;;27.40;13.18;;;;;;;18.89;68.26;102156.38;5112083;28;20467;-50
2022/07/05 08:09:33;;;;;;;23.13;13.25;;;;;;;18.92;67.22;102157.31;5112773;28;20049;-49
2022/07/05 08:11:58;;;;;;;31.67;12.68;;;;;;;18.96;67.45;102157.41;5112916;28;20107;-50
2022/07/05 08:14:24;;;;;;;22.95;13.05;;;;;;;19.03;67.25;102160.13;5111929;28;20031;-47
2022/07/05 08:16:49;;;;;;;29.30;13.20;;;;;;;19.13;67.05;102158.50;5112750;28;20035;-49
2022/07/05 08:22:00;;;;;;;27.25;14.40;;;;;;;19.18;67.22;102164.69;5113131;28;20035;-45
2022/07/05 08:24:25;;;;;;;28.85;12.57;;;;;;;19.30;67.09;102163.13;5112710;28;20091;-48
2022/07/05 08:26:50;;;;;;;26.55;11.45;;;;;;;19.54;67.29;102157.34;5111881;28;20061;-48
2022/07/05 08:29:16;;;;;;;26.35;12.70;;;;;;;19.69;66.21;102167.13;5112708;28;20464;-48
2022/07/05 08:31:45;;;;;;;23.75;11.30;;;;;;;19.80;65.83;102157.69;5112466;28;20023;-49
2022/07/05 08:34:11;;;;;;;34.08;12.38;;;;;;;19.80;65.35;102165.53;5111930;28;20024;-48
2022/07/05 08:36:37;;;;;;;30.20;12.48;;;;;;;19.73;65.69;102169.81;5112575;28;20039;-49
2022/07/05 08:39:03;;;;;;;33.55;12.88;;;;;;;19.65;65.39;102157.47;5112570;28;20379;-48
2022/07/05 08:41:29;;;;;;;30.40;11.98;;;;;;;19.66;66.94;102160.13;5114920;28;20220;-46
2022/07/05 08:43:57;;;;;;;25.77;12.18;;;;;;;19.74;67.11;102158.50;5116319;28;20531;-48
2022/07/05 08:46:25;;;;;;;32.15;14.68;;;;;;;19.79;66.38;102162.91;5116051;28;20024;-44
2022/07/05 08:48:51;;;;;;;33.17;14.18;;;;;;;19.92;66.40;102153.50;5115526;28;20016;-49
2022/07/05 08:51:21;;;;;;;29.63;14.68;;;;;;;19.86;66.60;102151.69;5116263;28;20042;-49
2022/07/05 08:53:48;;;;;;;29.38;12.20;;;;;;;19.97;67.65;102152.66;5116238;28;20055;-47
2022/07/05 08:56:14;;;;;;;20.52;11.93;;;;;;;20.08;65.19;102147.56;5115171;28;20039;-49
2022/07/05 08:58:40;;;;;;;27.80;10.75;;;;;;;20.31;65.81;102147.81;5115947;28;20024;-49
2022/07/05 09:01:07;;;;;;;22.40;10.95;;;;;;;20.28;62.83;102153.00;5115501;28;20051;-49
2022/07/05 09:03:36;;;;;;;22.07;12.43;;;;;;;20.19;62.64;102147.69;5115367;28;20039;-46
2022/07/05 09:06:02;;;;;;;21.35;11.48;;;;;;;20.33;63.36;102150.44;5115883;28;20274;-49
2022/07/05 09:08:32;;;;;;;27.55;10.85;;;;;;;20.57;63.01;102155.03;5114990;28;20031;-48
2022/07/05 09:11:01;;;;;;;22.15;10.75;;;;;;;20.54;61.01;102155.00;5116074;28;20027;-48
2022/07/05 09:13:26;;;;;;;24.00;11.45;;;;;;;20.30;60.74;102153.03;5115575;28;20028;-48
2022/07/05 09:15:52;;;;;;;28.02;10.65;;;;;;;20.25;61.53;102158.22;5115054;28;20020;-48
2022/07/05 09:18:45;;;;;;;22.05;9.68;;;;;;;20.31;61.84;102147.81;5115531;28;20126;-48
2022/07/05 09:21:18;;;;;;;25.50;10.45;;;;;;;20.42;60.43;102154.91;5115571;28;20027;-47
2022/07/05 09:23:45;;;;;;;22.80;9.68;;;;;;;20.68;59.99;102153.41;5114640;28;20015;-49
2022/07/05 09:26:10;;;;;;;25.50;11.53;;;;;;;20.88;58.66;102161.44;5115659;28;20024;-49
2022/07/05 09:28:36;;;;;;;26.20;10.80;;;;;;;21.15;58.20;102154.63;5115168;28;20114;-49
2022/07/05 09:31:01;;;;;;;22.23;10.20;;;;;;;21.33;57.56;102152.97;5114624;28;20024;-47
2022/07/05 09:33:26;;;;;;;19.25;10.00;;;;;;;21.53;55.76;102166.22;5115166;28;20024;-49
2022/07/05 09:35:59;;;;;;;22.13;10.30;;;;;;;21.48;55.28;102157.44;5115363;28;20016;-47
2022/07/05 09:38:26;;;;;;;20.35;10.52;;;;;;;21.29;55.64;102156.44;5114371;28;20027;-47
2022/07/05 09:40:54;;;;;;;25.10;10.32;;;;;;;21.36;56.08;102159.13;5115300;28;20033;-46
2022/07/05 09:43:22;;;;;;;20.55;10.05;;;;;;;21.49;54.80;102159.19;5115185;28;20028;-45
2022/07/05 09:46:00;;;;;;;;;;;;;;;21.76;54.99;102157.63;5114832;28;20038;-49
2022/07/05 09:48:27;;;;;;;19.73;11.98;;;;;;;21.60;51.66;102154.03;5114991;28;19911;-49
2022/07/05 09:51:04;;;;;;;27.25;12.18;;;;;;;21.50;54.63;102156.56;5114047;28;20036;-49
2022/07/05 09:53:50;;;;;;;21.05;11.23;;;;;;;21.44;56.57;102158.28;5114571;28;20024;-49
2022/07/05 09:56:17;;;;;;;26.63;12.60;;;;;;;21.21;56.74;102153.78;5114624;28;20035;-48
2022/07/05 09:58:42;;;;;;;26.13;12.27;;;;;;;20.94;55.87;102152.75;5114083;28;20543;-49
2022/07/05 10:01:30;;;;;;;29.27;13.00;;;;;;;20.76;58.07;102160.47;5114475;28;20130;-49
2022/07/05 10:04:00;;;;;;;27.13;11.07;;;;;;;20.55;58.29;102156.75;5114976;28;20058;-50
2022/07/05 10:06:26;;;;;;;20.02;9.27;;;;;;;20.51;55.67;102149.75;5113916;28;20027;-47
2022/07/05 10:08:53;;;;;;;17.02;7.32;;;;;;;20.66;55.17;102155.13;5114673;28;20047;-49
2022/07/05 10:11:19;;;;;;;18.37;8.20;;;;;;;20.69;54.63;102160.38;5114574;28;20027;-49
2022/07/05 10:13:49;;;;;;;15.48;8.73;;;;;;;20.69;52.97;102162.97;5113524;28;20034;-49
2022/07/05 10:16:20;;;;;;;12.30;7.57;;;;;;;20.71;55.56;102153.44;5114497;28;20109;-49
2022/07/05 10:18:46;;;;;;;15.25;7.93;;;;;;;20.61;54.86;102151.56;5113696;28;20519;-47
2022/07/05 10:21:16;;;;;;;17.58;7.40;;;;;;;20.55;55.70;102164.59;5114295;28;20073;-48
2022/07/05 10:23:44;;;;;;;12.45;7.80;;;;;;;20.52;55.05;102162.84;5114283;28;20024;-49
2022/07/05 10:26:12;;;;;;;19.45;8.15;;;;;;;20.77;53.71;102159.59;5113396;28;20020;-48
2022/07/05 10:28:45;;;;;;;16.65;8.52;;;;;;;20.92;53.41;102159.72;5114089;28;20063;-49
2022/07/05 10:31:12;;;;;;;18.50;8.52;;;;;;;21.19;53.71;102150.28;5114044;28;20114;-49
2022/07/05 10:33:38;;;;;;;19.90;9.45;;;;;;;21.51;52.14;102160.06;5113432;28;20030;-52
2022/07/05 10:36:05;;;;;;;20.52;9.77;;;;;;;22.31;50.47;102157.75;5113896;28;20024;-51
2022/07/05 10:38:35;;;;;;;20.37;9.00;;;;;;;23.50;49.59;102159.47;5114063;28;20114;-49
2022/07/05 10:41:04;;;;;;;17.90;9.52;;;;;;;24.20;46.21;102154.75;5113118;28;20085;-49
2022/07/05 10:43:30;;;;;;;21.48;10.10;;;;;;;24.12;45.46;102153.94;5114080;28;20020;-49
2022/07/05 10:45:55;;;;;;;20.23;9.02;;;;;;;23.83;46.31;102152.28;5114153;28;20012;-49
2022/07/05 10:48:25;;;;;;;16.90;8.05;;;;;;;24.34;44.84;102149.38;5113090;28;20072;-48
2022/07/05 10:50:55;;;;;;;13.35;6.75;;;;;;;25.15;42.38;102147.81;5113938;28;20165;-49
2022/07/05 10:53:22;;;;;;;11.07;5.53;;;;;;;25.92;40.46;102148.63;5113627;28;20027;-49
2022/07/05 10:56:14;;;;;;;14.38;5.30;;;;;;;27.25;40.07;102141.16;5112886;28;20534;-49
2022/07/05 10:58:43;;;;;;;11.43;4.80;;;;;;;27.36;36.71;102146.28;5113777;28;20015;-50
2022/07/05 11:01:11;;;;;;;11.82;5.32;;;;;;;26.40;36.76;102150.63;5112694;28;20044;-48
2022/07/05 11:03:38;;;;;;;12.02;4.45;;;;;;;25.84;38.16;102158.44;5113401;28;20080;-49
2022/07/05 11:06:08;;;;;;;8.23;2.97;;;;;;;24.70;36.10;102151.75;5113359;28;20078;-48
2022/07/05 11:08:55;;;;;;;8.15;2.95;;;;;;;24.05;40.71;102157.47;5112876;28;20028;-48
2022/07/05 11:11:27;;;;;;;7.60;3.40;;;;;;;23.09;41.09;102163.03;5113371;28;20451;-49
2022/07/05 11:13:54;;;;;;;11.15;3.67;;;;;;;22.39;43.15;102156.91;5113356;28;20437;-48
2022/07/05 11:16:24;;;;;;;7.50;3.43;;;;;;;22.02;44.49;102171.66;5112489;28;20028;-49